Hopetoun, Australia
Current Conditions -  °F | °C
As of 12:00 PM on Saturday 25 Oct 2014 (Local Time) from YESP Reporting Station
Clear Clear  
Wind Chill: 72°   Ceiling: Unl
Heat Index: 72°   Visibility: 6mi
Dew Point: 61°   Wind: 20mph
Humidity: 69%   Direction: 210°SSW
Pressure: 29.88"   Gusts: NA
Location:  33.95°S, 120.12°E
Report Text: YESP 250400Z AUTO 21017KT 9999 // NCD 22/16 Q1012
Loading
Personal Weather Stations






























Interactive Weather Map
Tropical Storm Tracking
New forecast layout! Learn more

10-Day Weather Forecast

Advertisements
Track Severe Weather on mobile